createdAt,value
2018-01-27T00:01:56.481Z,1.83
2018-01-27T00:04:27.798Z,2.97
2018-01-27T00:06:58.199Z,1.20
2018-01-27T00:09:29.316Z,3.23
2018-01-27T00:12:00.490Z,3.07
2018-01-27T00:14:30.812Z,1.93
2018-01-27T00:17:01.544Z,2.13
2018-01-27T00:19:31.833Z,2.93
2018-01-27T00:22:02.158Z,1.03
2018-01-27T00:24:32.561Z,1.10
2018-01-27T00:27:02.843Z,2.17
2018-01-27T00:29:33.186Z,1.30
2018-01-27T00:32:03.494Z,2.47
2018-01-27T00:34:35.523Z,3.73
2018-01-27T00:37:05.816Z,2.87
2018-01-27T00:39:36.169Z,2.33
2018-01-27T00:42:06.464Z,3.20
2018-01-27T00:44:36.881Z,2.27
2018-01-27T00:47:07.208Z,3.30
2018-01-27T00:49:37.806Z,1.80
2018-01-27T00:52:08.164Z,2.73
2018-01-27T00:54:38.454Z,1.20
2018-01-27T00:57:08.780Z,3.03
2018-01-27T00:59:39.143Z,1.53
2018-01-27T01:02:09.583Z,2.77
2018-01-27T01:04:40.450Z,2.93
2018-01-27T01:07:11.361Z,2.33
2018-01-27T01:09:44.216Z,1.80
2018-01-27T01:12:14.961Z,2.17
2018-01-27T01:17:19.980Z,1.50
2018-01-27T01:19:50.476Z,1.83
2018-01-27T01:22:20.806Z,1.60
2018-01-27T01:24:51.561Z,2.93
2018-01-27T01:27:22.475Z,1.53
2018-01-27T01:29:52.851Z,3.77
2018-01-27T01:32:23.398Z,4.57
2018-01-27T01:34:53.704Z,4.23
2018-01-27T01:37:24.274Z,2.40
2018-01-27T01:39:54.636Z,2.73
2018-01-27T01:42:29.949Z,4.53
2018-01-27T01:45:00.304Z,4.87
2018-01-27T01:47:30.604Z,8.77
2018-01-27T01:50:00.898Z,8.73
2018-01-27T01:52:31.148Z,5.27
2018-01-27T01:55:01.397Z,6.27
2018-01-27T01:57:32.659Z,4.73
2018-01-27T02:00:02.934Z,6.70
2018-01-27T02:02:33.206Z,7.97
2018-01-27T02:05:03.468Z,6.90
2018-01-27T02:07:34.652Z,5.93
2018-01-27T02:10:05.832Z,9.13
2018-01-27T02:12:36.123Z,5.43
2018-01-27T02:15:06.570Z,6.80
2018-01-27T02:17:37.435Z,4.07
2018-01-27T02:20:08.285Z,5.93
2018-01-27T02:22:39.667Z,11.17
2018-01-27T02:25:10.652Z,10.27
2018-01-27T02:27:42.090Z,6.57
2018-01-27T02:30:12.575Z,10.00
2018-01-27T02:32:43.798Z,8.90
2018-01-27T02:35:15.769Z,6.60
2018-01-27T02:37:46.203Z,7.13
2018-01-27T02:40:16.464Z,8.87
2018-01-27T02:42:46.821Z,8.43
2018-01-27T02:45:17.092Z,10.47
2018-01-27T02:47:47.529Z,5.60
2018-01-27T02:50:17.829Z,9.50
2018-01-27T02:52:48.135Z,7.03
2018-01-27T02:55:18.391Z,6.67
2018-01-27T02:57:48.639Z,9.13
2018-01-27T03:00:19.056Z,6.17
2018-01-27T03:02:49.374Z,9.77
2018-01-27T03:05:19.784Z,11.20
2018-01-27T03:07:50.113Z,10.87
2018-01-27T03:10:20.445Z,8.83
2018-01-27T03:12:50.948Z,6.30
2018-01-27T03:15:21.293Z,5.97
2018-01-27T03:17:51.615Z,10.13
2018-01-27T03:20:23.151Z,7.33
2018-01-27T03:22:55.886Z,10.67
2018-01-27T03:25:26.233Z,9.50
2018-01-27T03:27:57.237Z,5.07
2018-01-27T03:30:27.782Z,8.00
2018-01-27T03:32:58.720Z,11.37
2018-01-27T03:35:30.570Z,7.17
2018-01-27T03:38:01.857Z,10.33
2018-01-27T03:40:33.602Z,7.67
2018-01-27T03:43:03.989Z,13.43
2018-01-27T03:45:34.407Z,7.10
2018-01-27T03:48:04.861Z,10.37
2018-01-27T03:50:35.290Z,9.03
2018-01-27T03:53:05.620Z,10.63
2018-01-27T03:55:35.965Z,9.97
2018-01-27T03:58:06.360Z,13.07
2018-01-27T04:00:36.671Z,12.00
2018-01-27T04:03:07.001Z,14.33
2018-01-27T04:05:37.365Z,10.77
2018-01-27T04:08:07.689Z,8.63
2018-01-27T04:10:37.979Z,11.17
2018-01-27T04:13:08.324Z,9.90
2018-01-27T04:15:38.645Z,7.30
2018-01-27T04:18:09.032Z,7.67
2018-01-27T04:20:39.477Z,8.90
2018-01-27T04:23:09.855Z,10.37
2018-01-27T04:25:40.933Z,9.73
2018-01-27T04:28:11.295Z,8.60
2018-01-27T04:30:41.557Z,14.33
2018-01-27T04:33:11.813Z,12.33
2018-01-27T04:35:42.702Z,10.77
2018-01-27T04:38:13.186Z,8.63
2018-01-27T04:40:43.571Z,8.23
2018-01-27T04:43:15.220Z,8.67
2018-01-27T04:45:45.538Z,13.60
2018-01-27T04:48:15.861Z,9.30
2018-01-27T04:50:46.147Z,8.13
2018-01-27T04:53:16.431Z,11.90
2018-01-27T04:55:46.686Z,10.17
2018-01-27T04:58:17.104Z,7.70
2018-01-27T05:00:47.458Z,11.63
2018-01-27T05:03:17.793Z,11.63
2018-01-27T05:05:48.152Z,11.60
2018-01-27T05:08:18.476Z,12.07
2018-01-27T05:10:48.750Z,13.63
2018-01-27T05:13:19.234Z,10.63
2018-01-27T05:15:49.573Z,12.03
2018-01-27T05:18:19.874Z,8.53
2018-01-27T05:20:50.147Z,10.80
2018-01-27T05:23:20.478Z,14.20
2018-01-27T05:25:50.773Z,13.53
2018-01-27T05:28:21.071Z,9.30
2018-01-27T05:30:51.413Z,6.70
2018-01-27T05:33:21.727Z,6.83
2018-01-27T05:35:52.017Z,10.50
2018-01-27T05:38:22.343Z,9.27
2018-01-27T05:40:52.712Z,7.73
2018-01-27T05:43:23.050Z,7.53
2018-01-27T05:45:53.333Z,8.37
2018-01-27T05:48:24.175Z,13.57
2018-01-27T05:50:54.467Z,9.73
2018-01-27T05:53:24.804Z,5.47
2018-01-27T05:55:55.180Z,8.43
2018-01-27T05:58:25.533Z,9.63
2018-01-27T06:00:55.793Z,9.27
2018-01-27T06:03:26.094Z,5.97
2018-01-27T06:05:56.363Z,13.67
2018-01-27T06:08:26.811Z,12.30
2018-01-27T06:10:57.188Z,8.47
2018-01-27T06:13:27.496Z,9.77
2018-01-27T06:15:58.875Z,8.77
2018-01-27T06:18:30.648Z,11.07
2018-01-27T06:21:02.203Z,9.57
2018-01-27T06:23:34.199Z,10.73
2018-01-27T06:26:05.488Z,10.73
2018-01-27T06:28:36.611Z,9.87
2018-01-27T06:31:07.960Z,10.73
2018-01-27T06:33:39.130Z,8.67
2018-01-27T06:36:10.474Z,8.37
2018-01-27T06:38:42.257Z,10.47
2018-01-27T06:41:13.169Z,8.93
2018-01-27T06:43:44.285Z,9.73
2018-01-27T06:46:15.252Z,10.73
2018-01-27T06:48:46.577Z,9.67
2018-01-27T06:51:17.464Z,9.27
2018-01-27T06:53:48.903Z,9.77
2018-01-27T06:56:19.988Z,8.70
2018-01-27T06:58:51.375Z,7.67
2018-01-27T07:01:22.539Z,11.40
2018-01-27T07:03:53.664Z,8.80
2018-01-27T07:06:25.033Z,7.63
2018-01-27T07:08:56.159Z,9.67
2018-01-27T07:11:27.713Z,7.87
2018-01-27T07:13:59.266Z,5.77
2018-01-27T07:16:30.332Z,12.73
2018-01-27T07:19:01.578Z,8.70
2018-01-27T07:21:32.702Z,10.33
2018-01-27T07:24:03.998Z,11.27
2018-01-27T07:26:35.004Z,7.67
2018-01-27T07:29:06.351Z,10.23
2018-01-27T07:31:37.598Z,11.10
2018-01-27T07:34:08.821Z,12.23
2018-01-27T07:36:39.945Z,9.00
2018-01-27T07:39:10.964Z,9.20
2018-01-27T07:41:42.205Z,12.77
2018-01-27T07:44:13.608Z,7.90
2018-01-27T07:46:44.740Z,10.10
2018-01-27T07:49:15.726Z,10.80
2018-01-27T07:51:46.838Z,10.90
2018-01-27T07:54:18.581Z,8.30
2018-01-27T07:56:49.658Z,9.67
2018-01-27T07:59:21.308Z,12.23
2018-01-27T08:01:53.409Z,11.37
2018-01-27T08:04:24.385Z,7.23
2018-01-27T08:06:55.726Z,9.10
2018-01-27T08:09:26.693Z,13.17
2018-01-27T08:11:57.584Z,10.40
2018-01-27T08:14:28.981Z,10.40
2018-01-27T08:17:00.062Z,14.17
2018-01-27T08:19:31.040Z,10.57
2018-01-27T08:22:02.214Z,10.93
2018-01-27T08:24:33.530Z,9.83
2018-01-27T08:27:04.687Z,13.93
2018-01-27T08:29:36.029Z,12.10
2018-01-27T08:32:07.376Z,10.13
2018-01-27T08:34:38.557Z,11.33
2018-01-27T08:37:10.109Z,8.57
2018-01-27T08:39:41.273Z,10.43
2018-01-27T08:42:12.785Z,11.93
2018-01-27T08:44:43.904Z,10.57
2018-01-27T08:47:15.149Z,14.13
2018-01-27T08:49:46.153Z,15.00
2018-01-27T08:52:17.377Z,13.50
2018-01-27T08:54:48.909Z,11.67
2018-01-27T08:57:20.038Z,10.97
2018-01-27T08:59:51.360Z,9.53
2018-01-27T09:02:22.315Z,10.90
2018-01-27T09:04:53.299Z,11.77
2018-01-27T09:07:24.665Z,11.63
2018-01-27T09:09:55.811Z,10.70
2018-01-27T09:12:27.378Z,13.13
2018-01-27T09:14:58.913Z,13.77
2018-01-27T09:17:30.259Z,13.17
2018-01-27T09:20:01.606Z,11.80
2018-01-27T09:22:33.145Z,11.40
2018-01-27T09:25:05.561Z,11.30
2018-01-27T09:27:36.644Z,10.87
2018-01-27T09:30:08.072Z,8.17
2018-01-27T09:32:39.540Z,10.37
2018-01-27T09:35:10.572Z,12.07
2018-01-27T09:37:42.286Z,11.37
2018-01-27T09:40:13.384Z,13.37
2018-01-27T09:42:44.924Z,9.27
2018-01-27T09:45:16.292Z,9.43
2018-01-27T09:47:47.519Z,10.00
2018-01-27T09:50:18.370Z,11.17
2018-01-27T09:52:49.309Z,9.63
2018-01-27T09:55:20.301Z,10.30
2018-01-27T09:57:51.613Z,9.80
2018-01-27T10:00:22.488Z,9.97
2018-01-27T10:02:53.451Z,8.93
2018-01-27T10:05:24.733Z,8.23
2018-01-27T10:07:56.025Z,11.30
2018-01-27T10:10:27.565Z,8.67
2018-01-27T10:12:58.640Z,9.60
2018-01-27T10:15:29.577Z,11.63
2018-01-27T10:18:00.516Z,9.17
2018-01-27T10:20:31.639Z,9.20
2018-01-27T10:23:03.172Z,8.17
2018-01-27T10:25:34.972Z,9.63
2018-01-27T10:28:06.273Z,5.97
2018-01-27T10:30:37.925Z,6.03
2018-01-27T10:33:12.728Z,10.40
2018-01-27T10:35:45.378Z,6.40
2018-01-27T10:38:17.110Z,10.07
2018-01-27T10:40:48.670Z,9.93
2018-01-27T10:43:20.414Z,13.60
2018-01-27T10:45:51.976Z,6.93
2018-01-27T10:48:23.321Z,9.23
2018-01-27T10:50:55.059Z,10.10
2018-01-27T10:53:26.655Z,7.13
2018-01-27T10:55:57.983Z,9.03
2018-01-27T10:58:29.257Z,8.97
2018-01-27T11:01:00.702Z,9.23
2018-01-27T11:03:32.227Z,7.23
2018-01-27T11:06:03.533Z,7.47
2018-01-27T11:08:34.727Z,9.27
2018-01-27T11:11:06.428Z,6.50
2018-01-27T11:13:37.830Z,8.20
2018-01-27T11:16:09.385Z,7.07
2018-01-27T11:18:40.492Z,9.30
2018-01-27T11:21:11.882Z,8.67
2018-01-27T11:23:43.569Z,8.33
2018-01-27T11:26:14.988Z,11.13
2018-01-27T11:28:46.481Z,6.30
2018-01-27T11:31:17.822Z,7.03
2018-01-27T11:33:49.188Z,9.30
2018-01-27T11:36:20.316Z,7.17
2018-01-27T11:38:51.947Z,6.23
2018-01-27T11:41:23.035Z,9.30
2018-01-27T11:43:54.850Z,7.63
2018-01-27T11:46:26.127Z,7.37
2018-01-27T11:48:57.477Z,7.10
2018-01-27T11:51:28.688Z,6.30
2018-01-27T11:54:00.169Z,8.37
2018-01-27T11:56:31.770Z,7.60
2018-01-27T11:59:02.873Z,9.53
2018-01-27T12:01:34.912Z,5.63
2018-01-27T12:04:06.396Z,7.13
2018-01-27T12:06:37.981Z,4.77
2018-01-27T12:09:09.287Z,7.20
2018-01-27T12:11:40.431Z,5.30
2018-01-27T12:14:11.646Z,6.53
2018-01-27T12:16:42.909Z,5.83
2018-01-27T12:19:14.097Z,4.57
2018-01-27T12:21:45.228Z,4.43
2018-01-27T12:24:16.756Z,3.90
2018-01-27T12:26:48.103Z,7.10
2018-01-27T12:29:19.268Z,7.13
2018-01-27T12:31:51.010Z,4.93
2018-01-27T12:34:22.088Z,5.77
2018-01-27T12:36:53.337Z,6.13
2018-01-27T12:39:24.922Z,5.90
2018-01-27T12:41:56.192Z,3.67
2018-01-27T12:44:27.567Z,6.37
2018-01-27T12:46:58.907Z,4.97
2018-01-27T12:49:30.063Z,6.13
2018-01-27T12:52:01.189Z,6.83
2018-01-27T12:54:32.565Z,8.70
2018-01-27T12:57:03.903Z,4.80
2018-01-27T12:59:35.028Z,5.83
2018-01-27T13:02:06.997Z,6.93
2018-01-27T13:04:37.828Z,5.70
2018-01-27T13:07:08.871Z,5.20
2018-01-27T13:09:40.021Z,4.77
2018-01-27T13:12:11.363Z,6.07
2018-01-27T13:14:42.774Z,6.87
2018-01-27T13:17:14.118Z,6.67
2018-01-27T13:19:45.220Z,3.90
2018-01-27T13:22:16.609Z,6.93
2018-01-27T13:24:47.735Z,7.53
2018-01-27T13:27:19.243Z,4.93
2018-01-27T13:29:50.606Z,5.10
2018-01-27T13:32:21.989Z,6.93
2018-01-27T13:34:53.522Z,6.10
2018-01-27T13:37:25.272Z,5.40
2018-01-27T13:39:56.373Z,6.57
2018-01-27T13:42:27.590Z,5.50
2018-01-27T13:44:59.297Z,4.93
2018-01-27T13:47:30.461Z,3.63
2018-01-27T13:50:01.629Z,6.60
2018-01-27T13:52:32.729Z,8.40
2018-01-27T13:55:03.895Z,5.93
2018-01-27T13:57:34.780Z,8.53
2018-01-27T14:00:05.813Z,6.87
2018-01-27T14:02:36.906Z,8.73
2018-01-27T14:05:08.044Z,4.17
2018-01-27T14:07:39.032Z,7.57
2018-01-27T14:10:10.103Z,6.23
2018-01-27T14:12:41.708Z,3.17
2018-01-27T14:15:12.896Z,6.53
2018-01-27T14:17:44.024Z,5.13
2018-01-27T14:20:15.163Z,5.63
2018-01-27T14:22:46.206Z,6.40
2018-01-27T14:25:17.452Z,7.67
2018-01-27T14:27:49.004Z,5.93
2018-01-27T14:30:20.059Z,5.20
2018-01-27T14:32:50.992Z,4.73
2018-01-27T14:35:22.008Z,5.23
2018-01-27T14:37:53.390Z,6.73
2018-01-27T14:40:24.723Z,6.20
2018-01-27T14:42:55.793Z,3.90
2018-01-27T14:45:27.023Z,5.77
2018-01-27T14:47:58.592Z,9.27
2018-01-27T14:50:29.944Z,4.73
2018-01-27T14:53:01.016Z,4.17
2018-01-27T14:55:32.446Z,6.27
2018-01-27T14:58:03.613Z,4.93
2018-01-27T15:00:34.598Z,4.60
2018-01-27T15:03:06.350Z,7.03
2018-01-27T15:05:37.620Z,4.23
2018-01-27T15:08:08.995Z,7.93
2018-01-27T15:10:40.350Z,5.37
2018-01-27T15:13:11.487Z,5.87
2018-01-27T15:15:42.771Z,4.30
2018-01-27T15:18:14.552Z,6.43
2018-01-27T15:20:45.601Z,14.03
2018-01-27T15:23:16.639Z,10.67
2018-01-27T15:25:47.996Z,9.93
2018-01-27T15:28:19.041Z,6.47
2018-01-27T15:30:50.078Z,6.83
2018-01-27T15:33:21.834Z,5.87
2018-01-27T15:35:52.904Z,7.90
2018-01-27T15:38:24.083Z,7.93
2018-01-27T15:40:55.204Z,5.43
2018-01-27T15:43:26.478Z,5.10
2018-01-27T15:45:58.172Z,5.77
2018-01-27T15:48:29.220Z,6.47
2018-01-27T15:51:00.394Z,8.43
2018-01-27T15:53:31.122Z,4.87
2018-01-27T15:56:02.293Z,7.83
2018-01-27T15:58:34.512Z,4.47
2018-01-27T16:01:06.033Z,11.30
2018-01-27T16:03:37.997Z,6.07
2018-01-27T16:06:09.320Z,7.57
2018-01-27T16:08:40.649Z,7.70
2018-01-27T16:11:12.482Z,5.77
2018-01-27T16:13:43.376Z,5.63
2018-01-27T16:16:15.129Z,4.63
2018-01-27T16:18:46.078Z,4.63
2018-01-27T16:21:17.487Z,6.13
2018-01-27T16:23:48.665Z,6.63
2018-01-27T16:26:20.909Z,9.20
2018-01-27T16:28:52.102Z,5.80
2018-01-27T16:31:23.547Z,3.60
2018-01-27T16:33:55.687Z,5.00
2018-01-27T16:36:26.609Z,6.20
2018-01-27T16:38:58.286Z,8.83
2018-01-27T16:41:29.371Z,36.40
2018-01-27T16:44:01.400Z,16.47
2018-01-27T16:46:33.018Z,69.40
2018-01-27T16:49:04.582Z,38.83
2018-01-27T16:51:36.903Z,36.77
2018-01-27T16:54:08.389Z,22.97
2018-01-27T16:56:39.503Z,23.77
2018-01-27T16:59:11.065Z,18.20
2018-01-27T17:01:42.469Z,15.57
2018-01-27T17:04:13.966Z,13.87
2018-01-27T17:06:45.236Z,18.13
2018-01-27T17:09:16.921Z,9.67
2018-01-27T17:11:48.129Z,11.77
2018-01-27T17:14:19.599Z,9.27
2018-01-27T17:16:50.415Z,10.07
2018-01-27T17:19:21.779Z,11.47
2018-01-27T17:21:53.105Z,12.70
2018-01-27T17:24:24.493Z,12.57
2018-01-27T17:26:55.753Z,11.40
2018-01-27T17:29:26.544Z,14.70
2018-01-27T17:31:57.768Z,11.63
2018-01-27T17:34:29.202Z,13.20
2018-01-27T17:37:00.813Z,10.20
2018-01-27T17:39:32.309Z,8.70
2018-01-27T17:42:04.040Z,11.03
2018-01-27T17:44:35.271Z,11.30
2018-01-27T17:47:06.393Z,10.17
2018-01-27T17:49:37.961Z,9.17
2018-01-27T17:52:09.269Z,8.77
2018-01-27T17:54:40.694Z,9.03
2018-01-27T17:57:11.998Z,9.37
2018-01-27T17:59:43.823Z,9.03
2018-01-27T18:02:15.381Z,10.33
2018-01-27T18:04:46.862Z,8.23
2018-01-27T18:07:18.000Z,14.07
2018-01-27T18:09:49.084Z,10.93
2018-01-27T18:12:20.347Z,7.30
2018-01-27T18:14:51.468Z,10.97
2018-01-27T18:17:22.940Z,13.07
2018-01-27T18:19:54.829Z,11.37
2018-01-27T18:22:26.250Z,9.40
2018-01-27T18:24:58.092Z,6.63
2018-01-27T18:27:29.363Z,9.87
2018-01-27T18:30:00.683Z,9.30
2018-01-27T18:32:32.271Z,8.63
2018-01-27T18:35:03.900Z,12.10
2018-01-27T18:37:35.596Z,9.50
2018-01-27T18:40:06.965Z,9.77
2018-01-27T18:42:38.606Z,6.43
2018-01-27T18:45:09.874Z,8.63
2018-01-27T18:47:41.230Z,11.00
2018-01-27T18:50:13.274Z,8.50
2018-01-27T18:52:45.185Z,5.93
2018-01-27T18:55:16.783Z,5.57
2018-01-27T18:57:48.648Z,8.27
2018-01-27T19:00:20.580Z,11.63
2018-01-27T19:02:52.255Z,9.20
2018-01-27T19:05:24.005Z,7.63
2018-01-27T19:07:55.482Z,8.20
2018-01-27T19:10:26.927Z,6.97
2018-01-27T19:12:58.164Z,7.13
2018-01-27T19:20:23.916Z,8.33
2018-01-27T19:22:55.063Z,8.17
2018-01-27T19:25:26.310Z,11.57
2018-01-27T19:27:57.740Z,13.00
2018-01-27T19:30:29.288Z,9.60
2018-01-27T19:33:00.349Z,7.70
2018-01-27T19:35:31.745Z,11.77
2018-01-27T19:38:02.957Z,6.87
2018-01-27T19:40:34.193Z,8.13
2018-01-27T19:43:05.171Z,6.50
2018-01-27T19:45:36.428Z,11.43
2018-01-27T19:48:07.533Z,4.07
2018-01-27T19:50:39.064Z,5.67
2018-01-27T19:53:10.206Z,5.40
2018-01-27T19:55:41.764Z,6.47
2018-01-27T19:58:13.020Z,12.03
2018-01-27T20:00:44.283Z,7.43
2018-01-27T20:03:15.412Z,7.57
2018-01-27T20:05:46.899Z,6.93
2018-01-27T20:08:18.042Z,12.67
2018-01-27T20:10:49.620Z,6.57
2018-01-27T20:13:20.837Z,6.20
2018-01-27T20:15:51.828Z,6.60
2018-01-27T20:18:23.091Z,8.43
2018-01-27T20:20:54.579Z,8.97
2018-01-27T20:23:25.579Z,4.43
2018-01-27T20:25:56.713Z,6.50
2018-01-27T20:28:27.006Z,5.37
2018-01-27T20:30:57.240Z,7.30
2018-01-27T20:33:27.600Z,4.83
2018-01-27T20:35:57.855Z,4.57
2018-01-27T20:38:28.240Z,6.67
2018-01-27T20:40:58.550Z,4.40
2018-01-27T20:43:28.973Z,6.40
2018-01-27T20:45:59.423Z,4.70
2018-01-27T20:48:29.816Z,3.20
2018-01-27T20:51:00.125Z,4.63
2018-01-27T20:53:30.483Z,9.07
2018-01-27T20:56:01.065Z,5.53
2018-01-27T20:58:31.320Z,7.33
2018-01-27T21:14:09.806Z,8.50
2018-01-27T21:16:40.049Z,7.13
2018-01-27T21:19:10.294Z,5.67
2018-01-27T21:21:40.720Z,6.00
2018-01-27T21:24:13.691Z,5.80
2018-01-27T21:26:44.066Z,5.80
2018-01-27T21:29:15.651Z,4.23
2018-01-27T21:31:46.885Z,6.73
2018-01-27T21:34:18.285Z,5.47
2018-01-27T21:36:50.319Z,5.73
2018-01-27T21:39:21.805Z,7.87
2018-01-27T21:41:53.497Z,5.40
2018-01-27T21:44:25.359Z,3.77
2018-01-27T21:46:56.650Z,5.77
2018-01-27T21:49:28.100Z,5.70
2018-01-27T21:51:59.623Z,4.67
2018-01-27T21:54:31.706Z,5.33
2018-01-27T21:57:02.829Z,6.07
2018-01-27T21:59:33.972Z,7.60
2018-01-27T22:02:05.335Z,8.77
2018-01-27T22:04:36.873Z,9.27
2018-01-27T22:07:08.017Z,2.30
2018-01-27T22:09:38.844Z,7.77
2018-01-27T22:12:09.804Z,1.97
2018-01-27T22:14:40.888Z,4.90
2018-01-27T22:17:11.971Z,5.37
2018-01-27T22:19:42.899Z,4.53
2018-01-27T22:22:14.040Z,5.93
2018-01-27T22:24:45.277Z,7.53
2018-01-27T22:27:16.366Z,9.20
2018-01-27T22:29:47.722Z,15.73
2018-01-27T22:32:18.884Z,14.57
2018-01-27T22:34:50.267Z,7.27
2018-01-27T22:37:21.531Z,9.27
2018-01-27T22:39:53.131Z,15.87
2018-01-27T22:42:24.010Z,8.10
2018-01-27T22:44:55.992Z,17.83
2018-01-27T22:47:27.216Z,20.30
2018-01-27T22:49:58.515Z,12.20
2018-01-27T22:52:29.845Z,8.10
2018-01-27T22:55:00.540Z,8.77
2018-01-27T22:57:31.777Z,5.63
2018-01-27T23:00:03.069Z,4.03
2018-01-27T23:02:36.524Z,5.70
2018-01-27T23:05:07.675Z,3.17
2018-01-27T23:07:38.811Z,4.40
2018-01-27T23:10:10.707Z,4.17
2018-01-27T23:12:41.880Z,2.70
2018-01-27T23:15:17.135Z,3.87
2018-01-27T23:17:48.342Z,3.70
2018-01-27T23:20:19.355Z,2.43
2018-01-27T23:23:00.767Z,7.00
2018-01-27T23:25:32.527Z,2.73
2018-01-27T23:28:04.957Z,3.37
2018-01-27T23:30:36.680Z,2.93
2018-01-27T23:35:44.285Z,1.93
2018-01-27T23:38:16.330Z,2.93
2018-01-27T23:40:47.636Z,3.53
2018-01-27T23:43:19.734Z,1.83
2018-01-27T23:45:50.640Z,1.87
2018-01-27T23:48:21.658Z,3.10
2018-01-27T23:50:52.742Z,1.93
2018-01-27T23:53:23.640Z,3.60
2018-01-27T23:55:54.632Z,2.30
2018-01-27T23:58:25.853Z,2.33
